Time;durP1;ratioP1;P1;durP2;ratioP2;P2;SDS_P1;SDS_P2;PMS_P1;PMS_P2;Temp;Humidity;BMP_temperature;BMP_pressure;BME280_temperature;BME280_humidity;BME280_pressure;Samples;Min_cycle;Max_cycle;Signal;HPM_P1;HPM_P2
2022/04/22 00:00:08;;;;;;;14.65;8.85;;;;;;;;;;5084037;28;20036;-76
2022/04/22 00:02:34;;;;;;;16.17;10.68;;;;;;;;;;5084721;28;20089;-76
2022/04/22 00:05:01;;;;;;;16.08;9.27;;;;;;;;;;5088114;28;20043;-76
2022/04/22 00:07:28;;;;;;;19.92;10.15;;;;;;;;;;5088391;28;20040;-76
2022/04/22 00:09:54;;;;;;;16.90;10.05;;;;;;;;;;5088429;28;20310;-76
2022/04/22 00:12:21;;;;;;;15.32;9.68;;;;;;;;;;5088136;28;20078;-77
2022/04/22 00:14:47;;;;;;;14.85;9.32;;;;;;;;;;5088253;28;20040;-76
2022/04/22 00:17:13;;;;;;;13.77;9.05;;;;;;;;;;5088160;28;20043;-76
2022/04/22 00:19:39;;;;;;;18.20;9.82;;;;;;;;;;5088410;28;20479;-76
2022/04/22 00:22:05;;;;;;;18.02;9.98;;;;;;;;;;5087971;28;20040;-76
2022/04/22 00:24:31;;;;;;;14.38;9.80;;;;;;;;;;5088273;28;20130;-76
2022/04/22 00:26:58;;;;;;;17.10;9.32;;;;;;;;;;5087930;28;20043;-76
2022/04/22 00:29:24;;;;;;;14.73;9.70;;;;;;;;;;5071552;28;20039;-77
2022/04/22 00:31:50;;;;;;;18.00;10.05;;;;;;;;;;5087637;28;20051;-76
2022/04/22 00:34:16;;;;;;;16.98;9.80;;;;;;;;;;5068598;28;156109;-76
2022/04/22 00:36:42;;;;;;;18.17;10.68;;;;;;;;;;5107524;27;20044;-76
2022/04/22 00:39:08;;;;;;;15.10;9.80;;;;;;;;;;5088953;28;20089;-76
2022/04/22 00:41:35;;;;;;;18.45;10.93;;;;;;;;;;5089013;28;20124;-76
2022/04/22 00:44:01;;;;;;;19.17;10.05;;;;;;;;;;5086955;28;20526;-76
2022/04/22 00:46:27;;;;;;;16.67;10.30;;;;;;;;;;5088238;28;20044;-76
2022/04/22 00:48:54;;;;;;;19.60;10.82;;;;;;;;;;5088172;28;20069;-76
2022/04/22 00:51:22;;;;;;;16.80;10.65;;;;;;;;;;5088172;28;20040;-76
2022/04/22 00:53:49;;;;;;;18.10;10.43;;;;;;;;;;5088713;28;20063;-76
2022/04/22 00:56:15;;;;;;;14.73;10.18;;;;;;;;;;5088762;28;20551;-76
2022/04/22 00:58:43;;;;;;;17.08;9.98;;;;;;;;;;5088691;28;20370;-77
2022/04/22 01:01:10;;;;;;;16.50;10.18;;;;;;;;;;5088292;28;20072;-77
2022/04/22 01:03:36;;;;;;;17.42;10.40;;;;;;;;;;5088335;28;20048;-77
2022/04/22 01:11:37;;;;;;;16.50;9.48;;;;;;;;;;5088261;28;20130;-76
2022/04/22 01:14:07;;;;;;;18.58;10.38;;;;;;;;;;5085794;28;20122;-77
2022/04/22 01:16:34;;;;;;;16.33;10.57;;;;;;;;;;5071320;28;20036;-77
2022/04/22 01:19:00;;;;;;;14.48;10.40;;;;;;;;;;5087907;28;20402;-76
2022/04/22 01:21:26;;;;;;;17.80;10.52;;;;;;;;;;5087785;28;20076;-76
2022/04/22 01:23:52;;;;;;;18.38;10.10;;;;;;;;;;5088155;28;20494;-76
2022/04/22 01:26:19;;;;;;;17.30;10.98;;;;;;;;;;5087926;28;20119;-76
2022/04/22 01:28:45;;;;;;;19.95;11.80;;;;;;;;;;5088222;28;20105;-76
2022/04/22 01:31:11;;;;;;;16.30;10.32;;;;;;;;;;5087817;28;20314;-76
2022/04/22 01:33:37;;;;;;;16.17;10.93;;;;;;;;;;5087748;28;20129;-76
2022/04/22 01:36:04;;;;;;;16.50;11.20;;;;;;;;;;5087914;28;20115;-76
2022/04/22 01:38:30;;;;;;;16.05;11.10;;;;;;;;;;5087605;28;20320;-76
2022/04/22 01:40:56;;;;;;;16.95;11.07;;;;;;;;;;5087627;28;20050;-76
2022/04/22 01:43:23;;;;;;;17.75;11.85;;;;;;;;;;5087618;28;20040;-75
2022/04/22 01:45:52;;;;;;;18.35;11.73;;;;;;;;;;5087648;28;20054;-76
2022/04/22 01:48:19;;;;;;;15.60;9.95;;;;;;;;;;5087522;28;20051;-76
2022/04/22 01:50:45;;;;;;;17.65;11.20;;;;;;;;;;5087394;28;20051;-76
2022/04/22 01:53:11;;;;;;;17.52;11.07;;;;;;;;;;5087532;28;20105;-76
2022/04/22 01:55:38;;;;;;;19.02;12.10;;;;;;;;;;5087437;28;20038;-76
2022/04/22 01:58:04;;;;;;;17.52;11.30;;;;;;;;;;5087589;28;20152;-76
2022/04/22 02:00:30;;;;;;;18.60;11.80;;;;;;;;;;5087923;28;20120;-76
2022/04/22 02:02:56;;;;;;;18.40;11.35;;;;;;;;;;5087351;28;20040;-76
2022/04/22 02:05:22;;;;;;;18.83;11.40;;;;;;;;;;5087585;28;20035;-75
2022/04/22 02:07:48;;;;;;;16.60;11.63;;;;;;;;;;5070627;28;20036;-76
2022/04/22 02:10:14;;;;;;;18.52;11.32;;;;;;;;;;5087508;28;20044;-76
2022/04/22 02:12:41;;;;;;;17.35;11.68;;;;;;;;;;5070263;28;20128;-76
2022/04/22 02:15:07;;;;;;;18.17;11.07;;;;;;;;;;5087666;28;20040;-76
2022/04/22 02:17:34;;;;;;;16.15;11.18;;;;;;;;;;5087231;28;20032;-76
2022/04/22 02:20:01;;;;;;;16.88;12.00;;;;;;;;;;5087447;28;20588;-76
2022/04/22 02:22:27;;;;;;;17.25;11.13;;;;;;;;;;5087131;28;20040;-76
2022/04/22 02:24:53;;;;;;;16.05;10.68;;;;;;;;;;5087372;28;20035;-76
2022/04/22 02:30:04;;;;;;;18.60;10.88;;;;;;;;;;5077865;28;20113;-76
2022/04/22 02:32:31;;;;;;;17.27;10.93;;;;;;;;;;5088040;28;20044;-75
2022/04/22 02:34:57;;;;;;;16.25;10.45;;;;;;;;;;5090747;28;20114;-76
2022/04/22 02:37:23;;;;;;;14.35;10.40;;;;;;;;;;5073445;28;20040;-76
2022/04/22 02:39:49;;;;;;;14.63;10.25;;;;;;;;;;5090351;28;20032;-76
2022/04/22 02:47:46;;;;;;;14.18;9.50;;;;;;;;;;5090177;28;20143;-75
2022/04/22 02:50:12;;;;;;;13.73;8.60;;;;;;;;;;5090315;28;20118;-76
2022/04/22 02:52:38;;;;;;;14.88;8.38;;;;;;;;;;5090225;28;20044;-76
2022/04/22 02:55:04;;;;;;;12.02;7.75;;;;;;;;;;5073530;28;20036;-76
2022/04/22 02:57:30;;;;;;;13.90;8.00;;;;;;;;;;5088605;28;20499;-76
2022/04/22 02:59:57;;;;;;;13.90;7.93;;;;;;;;;;5089894;28;20048;-76
2022/04/22 03:02:23;;;;;;;12.85;8.38;;;;;;;;;;5072893;28;20142;-76
2022/04/22 03:04:49;;;;;;;13.43;7.95;;;;;;;;;;5089781;28;20050;-76
2022/04/22 03:07:21;;;;;;;12.30;7.57;;;;;;;;;;5090125;28;20044;-76
2022/04/22 03:09:47;;;;;;;12.35;8.45;;;;;;;;;;5090197;28;20044;-76
2022/04/22 03:12:14;;;;;;;13.00;8.43;;;;;;;;;;5089925;28;20482;-75
2022/04/22 03:14:41;;;;;;;13.88;8.25;;;;;;;;;;5090557;28;20079;-76
2022/04/22 03:17:07;;;;;;;12.63;7.78;;;;;;;;;;5068239;28;20138;-76
2022/04/22 03:19:33;;;;;;;12.27;8.13;;;;;;;;;;5088760;28;20044;-75
2022/04/22 03:21:59;;;;;;;13.00;7.97;;;;;;;;;;5089089;28;20126;-75
2022/04/22 03:24:26;;;;;;;12.88;8.02;;;;;;;;;;5090518;28;20252;-75
2022/04/22 03:26:52;;;;;;;14.32;8.40;;;;;;;;;;5076935;28;20040;-76
2022/04/22 03:29:18;;;;;;;14.30;8.40;;;;;;;;;;5092966;28;20036;-76
2022/04/22 03:31:44;;;;;;;13.35;8.38;;;;;;;;;;5093564;28;20036;-76
2022/04/22 03:34:10;;;;;;;13.45;8.55;;;;;;;;;;5073044;28;20367;-76
2022/04/22 03:36:36;;;;;;;13.65;8.35;;;;;;;;;;5090160;28;20040;-75
2022/04/22 03:39:03;;;;;;;18.33;8.05;;;;;;;;;;5089892;28;20036;-75
2022/04/22 03:41:29;;;;;;;14.32;8.20;;;;;;;;;;5089896;28;20040;-75
2022/04/22 03:43:55;;;;;;;14.40;8.40;;;;;;;;;;5090337;28;20383;-75
2022/04/22 03:46:22;;;;;;;11.30;7.65;;;;;;;;;;5090188;28;20466;-76
2022/04/22 03:48:48;;;;;;;14.32;7.70;;;;;;;;;;5090087;28;20699;-76
2022/04/22 03:51:14;;;;;;;13.00;8.50;;;;;;;;;;5089944;28;20123;-75
2022/04/22 03:53:41;;;;;;;13.65;8.43;;;;;;;;;;5089712;28;20090;-76
2022/04/22 03:58:51;;;;;;;12.90;7.82;;;;;;;;;;5090240;28;20048;-75
2022/04/22 04:01:18;;;;;;;12.65;8.23;;;;;;;;;;5089519;28;20050;-75
2022/04/22 04:03:44;;;;;;;11.88;7.63;;;;;;;;;;5089995;28;20044;-75
2022/04/22 04:06:10;;;;;;;15.00;8.45;;;;;;;;;;5089705;28;20503;-75
2022/04/22 04:08:36;;;;;;;12.43;8.20;;;;;;;;;;5089658;28;20040;-76
2022/04/22 04:16:25;;;;;;;13.02;7.22;;;;;;;;;;5089593;28;20040;-76
2022/04/22 04:18:51;;;;;;;11.85;7.72;;;;;;;;;;5089445;28;20407;-75
2022/04/22 04:24:03;;;;;;;11.65;7.45;;;;;;;;;;5089313;28;20121;-76
2022/04/22 04:26:29;;;;;;;14.40;7.90;;;;;;;;;;5089640;28;20420;-76
2022/04/22 04:28:55;;;;;;;12.20;7.72;;;;;;;;;;5088599;28;20056;-76
2022/04/22 04:31:21;;;;;;;13.82;7.15;;;;;;;;;;5089267;28;20580;-75
2022/04/22 04:33:50;;;;;;;12.20;8.05;;;;;;;;;;5088849;28;20422;-75
2022/04/22 04:36:17;;;;;;;14.50;8.35;;;;;;;;;;5088022;28;20201;-75
2022/04/22 04:38:43;;;;;;;12.75;7.70;;;;;;;;;;5072082;28;20044;-75
2022/04/22 04:41:12;;;;;;;11.15;7.38;;;;;;;;;;5089146;28;20537;-75
2022/04/22 04:43:39;;;;;;;12.43;7.57;;;;;;;;;;5088998;28;20520;-76
2022/04/22 04:46:05;;;;;;;11.88;7.72;;;;;;;;;;5088899;28;20052;-75
2022/04/22 04:48:31;;;;;;;12.43;7.30;;;;;;;;;;5088805;28;20050;-75
2022/04/22 04:50:58;;;;;;;12.52;7.20;;;;;;;;;;5088802;28;20035;-76
2022/04/22 04:53:25;;;;;;;12.27;7.72;;;;;;;;;;5088694;28;20040;-76
2022/04/22 04:55:52;;;;;;;12.10;7.50;;;;;;;;;;5089155;28;20487;-75
2022/04/22 04:58:19;;;;;;;11.50;7.53;;;;;;;;;;5088417;28;20040;-75
2022/04/22 05:00:45;;;;;;;12.18;7.13;;;;;;;;;;5088714;28;20040;-76
2022/04/22 05:03:12;;;;;;;13.23;7.28;;;;;;;;;;5088418;28;20036;-76
2022/04/22 05:05:38;;;;;;;11.05;6.97;;;;;;;;;;5086553;28;20678;-76
2022/04/22 05:08:05;;;;;;;13.23;7.88;;;;;;;;;;5088035;28;20086;-76
2022/04/22 05:10:31;;;;;;;12.57;8.05;;;;;;;;;;5087729;28;20044;-76
2022/04/22 05:12:59;;;;;;;15.63;8.43;;;;;;;;;;5087461;28;20063;-75
2022/04/22 05:15:26;;;;;;;16.98;7.88;;;;;;;;;;5071028;28;20075;-76
2022/04/22 05:17:53;;;;;;;13.68;8.32;;;;;;;;;;5088191;28;20410;-76
2022/04/22 05:20:20;;;;;;;11.65;7.63;;;;;;;;;;5087460;28;20046;-76
2022/04/22 05:22:46;;;;;;;11.45;7.55;;;;;;;;;;5088015;28;20047;-76
2022/04/22 05:25:13;;;;;;;14.65;8.27;;;;;;;;;;5088229;28;20573;-76
2022/04/22 05:27:40;;;;;;;11.75;7.78;;;;;;;;;;5087280;28;20044;-77
2022/04/22 05:32:52;;;;;;;14.23;8.00;;;;;;;;;;5086309;28;20410;-76
2022/04/22 05:35:20;;;;;;;13.77;8.35;;;;;;;;;;5087096;28;20119;-76
2022/04/22 05:37:56;;;;;;;12.20;7.93;;;;;;;;;;5069874;28;20050;-76
2022/04/22 05:40:24;;;;;;;12.90;7.72;;;;;;;;;;5085449;28;20430;-76
2022/04/22 05:42:51;;;;;;;10.23;7.20;;;;;;;;;;5086106;28;20057;-76
2022/04/22 05:45:17;;;;;;;12.10;7.32;;;;;;;;;;5086257;28;20051;-75
2022/04/22 05:47:45;;;;;;;12.73;7.35;;;;;;;;;;5069842;28;20047;-75
2022/04/22 05:50:18;;;;;;;14.07;7.88;;;;;;;;;;5087487;28;20040;-74
2022/04/22 05:52:52;;;;;;;13.85;7.15;;;;;;;;;;5087349;28;20044;-75
2022/04/22 05:55:19;;;;;;;11.63;7.10;;;;;;;;;;5087133;28;20036;-75
2022/04/22 05:57:47;;;;;;;11.82;7.18;;;;;;;;;;5070244;28;20040;-75
2022/04/22 06:00:14;;;;;;;11.45;6.63;;;;;;;;;;5086978;28;20046;-75
2022/04/22 06:02:41;;;;;;;13.50;6.97;;;;;;;;;;5087108;28;20036;-76
2022/04/22 06:05:11;;;;;;;12.38;7.00;;;;;;;;;;5086660;28;20059;-75
2022/04/22 06:07:38;;;;;;;10.27;6.78;;;;;;;;;;5086875;28;20055;-75
2022/04/22 06:12:50;;;;;;;10.65;6.90;;;;;;;;;;5086587;28;20092;-75
2022/04/22 06:15:16;;;;;;;9.70;5.70;;;;;;;;;;5086880;28;20044;-76
2022/04/22 06:17:42;;;;;;;11.57;6.15;;;;;;;;;;5086879;28;20055;-75
2022/04/22 06:20:15;;;;;;;10.73;6.03;;;;;;;;;;5086384;28;20032;-75
2022/04/22 06:22:42;;;;;;;10.40;5.68;;;;;;;;;;5087046;28;20044;-76
2022/04/22 06:25:09;;;;;;;12.57;6.20;;;;;;;;;;5086629;28;20548;-76
2022/04/22 06:27:39;;;;;;;7.88;5.05;;;;;;;;;;5083798;28;20491;-75
2022/04/22 06:30:06;;;;;;;9.55;5.53;;;;;;;;;;5083195;28;20074;-75
2022/04/22 06:32:32;;;;;;;10.73;5.47;;;;;;;;;;5079908;28;20129;-75
2022/04/22 06:34:58;;;;;;;8.73;5.03;;;;;;;;;;5092930;28;20054;-75
2022/04/22 06:37:25;;;;;;;7.65;4.90;;;;;;;;;;5085032;28;20051;-76
2022/04/22 06:48:06;;;;;;;9.98;4.93;;;;;;;;;;5100079;28;20046;-76
2022/04/22 06:50:33;;;;;;;8.45;4.85;;;;;;;;;;5083061;28;20043;-76
2022/04/22 06:52:59;;;;;;;7.95;4.90;;;;;;;;;;5100662;28;20038;-75
2022/04/22 06:55:25;;;;;;;8.10;4.30;;;;;;;;;;5087680;28;20043;-75
2022/04/22 06:57:52;;;;;;;8.32;4.60;;;;;;;;;;5089864;28;20067;-75
2022/04/22 07:00:19;;;;;;;9.00;4.53;;;;;;;;;;5087733;28;20034;-76
2022/04/22 07:02:46;;;;;;;9.82;4.95;;;;;;;;;;5095428;28;20122;-75
2022/04/22 07:05:12;;;;;;;7.93;4.13;;;;;;;;;;5074235;28;20049;-75
2022/04/22 07:07:38;;;;;;;8.23;4.30;;;;;;;;;;5090057;28;20078;-75
2022/04/22 07:10:05;;;;;;;7.43;4.03;;;;;;;;;;5075463;28;20044;-76
2022/04/22 07:12:32;;;;;;;8.25;4.28;;;;;;;;;;5088792;28;20250;-75
2022/04/22 07:15:06;;;;;;;7.55;4.07;;;;;;;;;;5091513;28;20059;-75
2022/04/22 07:17:33;;;;;;;8.00;4.43;;;;;;;;;;5093972;28;20403;-76
2022/04/22 07:20:01;;;;;;;7.85;4.28;;;;;;;;;;5093782;28;20285;-76
2022/04/22 07:22:27;;;;;;;9.07;4.35;;;;;;;;;;5072808;28;20084;-76
2022/04/22 07:24:56;;;;;;;8.88;4.45;;;;;;;;;;5089325;28;20082;-76
2022/04/22 07:27:30;;;;;;;8.02;4.20;;;;;;;;;;5093952;28;20051;-77
2022/04/22 07:29:59;;;;;;;7.45;4.05;;;;;;;;;;5094066;28;20044;-76
2022/04/22 07:32:29;;;;;;;9.10;4.90;;;;;;;;;;5090622;28;20089;-76
2022/04/22 07:34:55;;;;;;;9.82;4.35;;;;;;;;;;5094104;28;20523;-75
2022/04/22 07:37:22;;;;;;;8.20;4.03;;;;;;;;;;5093373;28;20178;-76
2022/04/22 07:39:48;;;;;;;7.57;3.85;;;;;;;;;;5093880;28;20039;-76
2022/04/22 07:42:17;;;;;;;7.78;4.88;;;;;;;;;;5093740;28;20043;-76
2022/04/22 07:47:33;;;;;;;7.75;3.90;;;;;;;;;;5093598;28;20123;-75
2022/04/22 07:50:02;;;;;;;7.80;4.25;;;;;;;;;;5079177;28;20394;-75
2022/04/22 07:52:28;;;;;;;9.15;3.80;;;;;;;;;;5090880;28;20604;-76
2022/04/22 07:54:54;;;;;;;7.80;4.50;;;;;;;;;;5076098;28;20031;-75
2022/04/22 07:57:21;;;;;;;9.00;4.10;;;;;;;;;;5076190;28;20036;-76
2022/04/22 07:59:47;;;;;;;7.45;4.10;;;;;;;;;;5092606;28;20039;-76
2022/04/22 08:02:14;;;;;;;7.30;4.15;;;;;;;;;;5092665;28;20054;-76
2022/04/22 08:04:40;;;;;;;7.97;4.22;;;;;;;;;;5093186;28;20043;-75
2022/04/22 08:07:07;;;;;;;8.02;4.00;;;;;;;;;;5092979;28;20118;-75
2022/04/22 08:09:34;;;;;;;7.68;3.90;;;;;;;;;;5092980;28;20048;-77
2022/04/22 08:12:00;;;;;;;8.25;4.30;;;;;;;;;;5091186;28;20067;-76
2022/04/22 08:14:27;;;;;;;8.55;3.92;;;;;;;;;;5076006;28;20077;-78
2022/04/22 08:16:56;;;;;;;7.28;4.00;;;;;;;;;;5078240;28;20039;-76
2022/04/22 08:19:23;;;;;;;6.63;3.80;;;;;;;;;;5093013;28;20043;-76
2022/04/22 08:21:49;;;;;;;8.98;4.03;;;;;;;;;;5076151;28;20085;-76
2022/04/22 08:24:15;;;;;;;7.70;3.67;;;;;;;;;;5092746;28;20486;-76
2022/04/22 08:26:42;;;;;;;7.18;4.10;;;;;;;;;;5092515;28;20108;-76
2022/04/22 08:29:08;;;;;;;10.48;4.15;;;;;;;;;;5076322;28;20036;-77
2022/04/22 08:31:34;;;;;;;9.75;4.30;;;;;;;;;;5088999;28;20503;-77
2022/04/22 08:34:00;;;;;;;9.32;4.00;;;;;;;;;;5092280;28;20043;-77
2022/04/22 08:36:30;;;;;;;6.38;3.95;;;;;;;;;;5092424;28;20039;-77
2022/04/22 08:38:59;;;;;;;8.80;3.95;;;;;;;;;;5092853;28;20062;-76
2022/04/22 08:41:31;;;;;;;8.52;4.32;;;;;;;;;;5092197;28;20036;-76
2022/04/22 08:44:00;;;;;;;7.38;3.70;;;;;;;;;;5092364;28;20132;-78
2022/04/22 08:51:59;;;;;;;6.03;3.72;;;;;;;;;;5091934;28;20096;-77
2022/04/22 08:54:26;;;;;;;8.48;3.70;;;;;;;;;;5092352;28;20043;-76
2022/04/22 08:56:52;;;;;;;7.70;3.83;;;;;;;;;;5092285;28;20105;-77
2022/04/22 08:59:18;;;;;;;7.97;3.65;;;;;;;;;;5091999;28;20031;-77
2022/04/22 09:01:45;;;;;;;7.18;3.75;;;;;;;;;;5092173;28;20460;-77
2022/04/22 09:04:11;;;;;;;6.85;3.45;;;;;;;;;;5075179;28;20092;-77
2022/04/22 09:06:37;;;;;;;6.05;3.30;;;;;;;;;;5092121;28;20553;-76
2022/04/22 09:09:04;;;;;;;6.93;3.72;;;;;;;;;;5075261;28;20040;-76
2022/04/22 09:11:31;;;;;;;14.20;3.83;;;;;;;;;;5089859;28;20092;-76
2022/04/22 09:14:00;;;;;;;9.57;3.72;;;;;;;;;;5092136;28;20043;-75
2022/04/22 09:16:26;;;;;;;6.25;3.38;;;;;;;;;;5091683;28;20040;-77
2022/04/22 09:18:59;;;;;;;6.20;3.13;;;;;;;;;;5087972;28;20295;-77
2022/04/22 09:21:25;;;;;;;7.60;3.40;;;;;;;;;;5091738;28;20083;-77
2022/04/22 09:23:53;;;;;;;6.90;3.40;;;;;;;;;;5090767;28;20035;-77
2022/04/22 09:26:26;;;;;;;6.53;3.47;;;;;;;;;;5091606;28;20123;-76
2022/04/22 09:28:57;;;;;;;6.60;3.42;;;;;;;;;;5091612;28;20613;-77
2022/04/22 09:31:25;;;;;;;6.95;3.60;;;;;;;;;;5075206;28;20126;-75
2022/04/22 09:33:51;;;;;;;8.10;3.67;;;;;;;;;;5091239;28;20212;-78
2022/04/22 09:44:55;;;;;;;7.07;3.72;;;;;;;;;;5090859;28;20047;-77
2022/04/22 09:47:22;;;;;;;9.38;3.95;;;;;;;;;;5090805;28;20100;-77
2022/04/22 09:49:48;;;;;;;8.93;3.88;;;;;;;;;;5079501;28;20074;-76
2022/04/22 09:52:14;;;;;;;7.63;4.03;;;;;;;;;;5084411;28;20075;-78
2022/04/22 09:54:40;;;;;;;6.97;3.90;;;;;;;;;;5091123;28;20127;-77
2022/04/22 09:57:07;;;;;;;7.38;4.10;;;;;;;;;;5091077;28;20044;-78
2022/04/22 09:59:33;;;;;;;9.02;3.95;;;;;;;;;;5074095;28;20036;-77
2022/04/22 10:02:04;;;;;;;8.68;3.85;;;;;;;;;;5090797;28;20043;-77
2022/04/22 10:04:32;;;;;;;7.57;3.83;;;;;;;;;;5091001;28;20075;-76
2022/04/22 10:07:00;;;;;;;7.32;3.50;;;;;;;;;;5074085;28;20130;-76
2022/04/22 10:09:28;;;;;;;7.53;3.97;;;;;;;;;;5091206;28;20043;-76
2022/04/22 10:11:56;;;;;;;11.18;4.55;;;;;;;;;;5090860;28;20490;-78
2022/04/22 10:14:35;;;;;;;7.60;3.90;;;;;;;;;;5072698;28;20039;-77
2022/04/22 10:17:03;;;;;;;6.57;3.60;;;;;;;;;;5087237;28;20099;-78
2022/04/22 10:19:30;;;;;;;8.57;3.83;;;;;;;;;;5090766;28;20035;-77
2022/04/22 10:21:56;;;;;;;8.05;3.83;;;;;;;;;;5090394;28;20043;-77
2022/04/22 10:24:23;;;;;;;8.38;4.13;;;;;;;;;;5090686;28;20522;-78
2022/04/22 10:26:49;;;;;;;7.65;4.28;;;;;;;;;;5074229;28;20043;-77
2022/04/22 10:29:19;;;;;;;11.88;4.90;;;;;;;;;;5090921;28;20442;-77
2022/04/22 10:31:46;;;;;;;9.68;4.35;;;;;;;;;;5090243;28;20049;-77
2022/04/22 10:34:12;;;;;;;7.53;4.30;;;;;;;;;;5091906;28;20062;-77
2022/04/22 10:36:40;;;;;;;7.78;4.75;;;;;;;;;;5094964;28;20407;-77
2022/04/22 10:39:07;;;;;;;8.73;4.50;;;;;;;;;;5128852;27;20042;-77
2022/04/22 10:41:49;;;;;;;7.22;4.15;;;;;;;;;;5094460;28;20085;-77
2022/04/22 10:47:15;;;;;;;8.52;4.40;;;;;;;;;;5094325;28;20123;-77
2022/04/22 10:49:45;;;;;;;7.88;4.72;;;;;;;;;;5094871;28;20535;-76
2022/04/22 10:52:18;;;;;;;8.13;4.18;;;;;;;;;;5089347;28;20274;-77
2022/04/22 10:54:54;;;;;;;7.47;4.63;;;;;;;;;;5084256;28;20047;-77
2022/04/22 10:57:24;;;;;;;6.63;4.38;;;;;;;;;;5077608;28;20058;-78
2022/04/22 11:00:27;;;;;;;7.63;4.15;;;;;;;;;;5094437;28;20043;-77
2022/04/22 11:03:01;;;;;;;9.35;4.32;;;;;;;;;;5094251;28;20320;-78
2022/04/22 11:06:07;;;;;;;8.23;4.47;;;;;;;;;;5090235;28;20044;-78
2022/04/22 11:08:50;;;;;;;7.82;4.75;;;;;;;;;;5093913;28;20039;-78
2022/04/22 11:11:18;;;;;;;10.05;4.40;;;;;;;;;;5093951;28;20043;-78
2022/04/22 11:13:46;;;;;;;9.18;4.28;;;;;;;;;;5093642;28;20044;-78
2022/04/22 11:16:23;;;;;;;8.27;4.20;;;;;;;;;;5077197;28;20098;-79
2022/04/22 11:19:08;;;;;;;8.45;4.80;;;;;;;;;;5093840;28;20040;-78
2022/04/22 11:21:37;;;;;;;8.40;4.65;;;;;;;;;;5075273;28;20115;-79
2022/04/22 11:24:30;;;;;;;9.50;4.50;;;;;;;;;;5082113;28;20039;-79
2022/04/22 11:27:07;;;;;;;7.10;4.70;;;;;;;;;;5107092;28;20047;-78
2022/04/22 11:29:33;;;;;;;7.18;4.65;;;;;;;;;;5079059;28;20079;-79
2022/04/22 11:31:59;;;;;;;10.25;4.72;;;;;;;;;;5093600;28;20518;-79
2022/04/22 11:34:41;;;;;;;7.97;4.47;;;;;;;;;;5093439;28;20066;-78
2022/04/22 11:37:16;;;;;;;8.15;4.43;;;;;;;;;;5077291;28;20399;-77
2022/04/22 11:39:46;;;;;;;9.60;4.40;;;;;;;;;;5093799;28;20035;-78
2022/04/22 11:42:12;;;;;;;7.53;4.32;;;;;;;;;;5093729;28;20043;-79
2022/04/22 11:44:39;;;;;;;7.35;4.43;;;;;;;;;;5093366;28;20104;-78
2022/04/22 11:47:05;;;;;;;10.32;4.97;;;;;;;;;;5076391;28;20396;-79
2022/04/22 11:49:32;;;;;;;8.40;4.80;;;;;;;;;;5093609;28;20032;-78
2022/04/22 11:52:00;;;;;;;8.93;4.68;;;;;;;;;;5093060;28;20031;-78
2022/04/22 11:54:27;;;;;;;9.13;6.35;;;;;;;;;;5074057;28;20032;-79
2022/04/22 11:56:53;;;;;;;8.27;4.82;;;;;;;;;;5093321;28;20100;-79
2022/04/22 11:59:23;;;;;;;9.13;4.90;;;;;;;;;;5093084;28;20067;-78
2022/04/22 12:10:07;;;;;;;9.57;4.55;;;;;;;;;;5093883;28;20047;-78
2022/04/22 12:12:34;;;;;;;8.25;4.68;;;;;;;;;;5092641;28;20046;-76
2022/04/22 12:15:03;;;;;;;9.32;5.10;;;;;;;;;;5089718;28;20461;-77
2022/04/22 12:17:30;;;;;;;8.63;4.97;;;;;;;;;;5083844;28;20043;-77
2022/04/22 12:19:56;;;;;;;9.38;5.25;;;;;;;;;;5070250;28;20054;-76
2022/04/22 12:22:23;;;;;;;8.32;4.75;;;;;;;;;;5092174;28;20147;-78
2022/04/22 12:25:08;;;;;;;8.20;5.07;;;;;;;;;;5088359;28;20506;-77
2022/04/22 12:27:34;;;;;;;8.50;4.30;;;;;;;;;;5086206;28;20470;-78
2022/04/22 12:30:02;;;;;;;11.07;4.93;;;;;;;;;;5089378;28;20077;-79
2022/04/22 12:32:28;;;;;;;6.93;4.20;;;;;;;;;;5077479;28;20040;-78
2022/04/22 12:35:09;;;;;;;8.50;5.28;;;;;;;;;;5090264;28;20105;-79
2022/04/22 12:37:35;;;;;;;8.43;5.30;;;;;;;;;;5092547;28;20099;-79
2022/04/22 12:40:09;;;;;;;8.82;5.53;;;;;;;;;;5088696;28;20040;-79
2022/04/22 12:42:36;;;;;;;8.35;5.18;;;;;;;;;;5079716;28;20044;-79
2022/04/22 12:53:51;;;;;;;7.80;5.28;;;;;;;;;;5091545;28;20040;-80
2022/04/22 12:56:25;;;;;;;11.63;5.85;;;;;;;;;;5088162;28;20039;-78
2022/04/22 12:58:55;;;;;;;11.73;5.53;;;;;;;;;;5091035;28;20078;-78
2022/04/22 13:01:25;;;;;;;8.75;5.85;;;;;;;;;;5073487;28;20043;-79
2022/04/22 13:03:51;;;;;;;10.00;5.85;;;;;;;;;;5091638;28;20046;-77
2022/04/22 13:06:39;;;;;;;11.75;6.80;;;;;;;;;;5083998;28;20139;-79
2022/04/22 13:09:06;;;;;;;9.80;5.88;;;;;;;;;;5088105;28;20054;-79
2022/04/22 13:11:33;;;;;;;12.50;6.47;;;;;;;;;;5079768;28;20032;-79
2022/04/22 13:14:00;;;;;;;8.00;5.82;;;;;;;;;;5091980;28;20059;-78
2022/04/22 13:16:26;;;;;;;10.02;6.43;;;;;;;;;;5069618;28;20035;-79
2022/04/22 13:18:53;;;;;;;10.52;5.95;;;;;;;;;;5074305;27;20042;-80
2022/04/22 13:21:19;;;;;;;9.88;6.35;;;;;;;;;;5093615;28;20401;-78
2022/04/22 13:23:45;;;;;;;8.48;6.20;;;;;;;;;;5082088;27;20053;-78
2022/04/22 13:26:12;;;;;;;9.55;7.25;;;;;;;;;;5094742;28;20034;-79
2022/04/22 13:28:38;;;;;;;11.05;6.78;;;;;;;;;;5090122;27;20055;-78
2022/04/22 13:31:04;;;;;;;8.40;6.25;;;;;;;;;;5101739;27;20049;-78
2022/04/22 13:33:34;;;;;;;10.30;6.18;;;;;;;;;;5099743;27;20082;-79
2022/04/22 13:36:01;;;;;;;9.25;6.75;;;;;;;;;;5098868;27;20039;-77
2022/04/22 13:38:28;;;;;;;9.75;6.28;;;;;;;;;;5084602;27;20114;-78
2022/04/22 13:40:54;;;;;;;11.45;6.32;;;;;;;;;;5096448;28;20031;-79
2022/04/22 13:43:20;;;;;;;8.63;6.30;;;;;;;;;;5092349;27;20031;-79
2022/04/22 13:54:01;;;;;;;11.48;6.97;;;;;;;;;;5091784;28;20051;-79
2022/04/22 13:56:27;;;;;;;11.07;6.70;;;;;;;;;;5091909;28;20037;-78
2022/04/22 13:58:53;;;;;;;10.75;6.57;;;;;;;;;;5090909;28;20089;-78
2022/04/22 14:01:19;;;;;;;8.73;6.75;;;;;;;;;;5091900;27;20071;-79
2022/04/22 14:03:46;;;;;;;10.57;6.32;;;;;;;;;;5090339;28;20067;-78
2022/04/22 14:06:12;;;;;;;10.50;6.05;;;;;;;;;;5088111;28;20061;-78
2022/04/22 14:08:38;;;;;;;11.68;6.35;;;;;;;;;;5089970;28;20039;-78
2022/04/22 14:11:07;;;;;;;10.82;6.63;;;;;;;;;;5090320;28;20035;-79
2022/04/22 14:13:33;;;;;;;10.93;6.15;;;;;;;;;;5088734;28;20052;-77
2022/04/22 14:16:00;;;;;;;11.13;6.95;;;;;;;;;;5072434;28;20425;-77
2022/04/22 14:18:30;;;;;;;13.00;6.78;;;;;;;;;;5090285;28;20694;-78
2022/04/22 14:20:58;;;;;;;11.60;6.90;;;;;;;;;;5087570;28;20036;-78
2022/04/22 14:23:24;;;;;;;9.18;6.00;;;;;;;;;;5081389;28;20571;-78
2022/04/22 14:25:50;;;;;;;8.50;6.10;;;;;;;;;;5089299;28;20050;-78
2022/04/22 14:28:16;;;;;;;9.10;6.10;;;;;;;;;;5088730;28;20082;-78
2022/04/22 14:30:44;;;;;;;9.45;6.20;;;;;;;;;;5089356;28;20043;-78
2022/04/22 14:33:11;;;;;;;9.13;5.25;;;;;;;;;;5088521;28;20120;-78
2022/04/22 14:35:37;;;;;;;9.40;6.13;;;;;;;;;;5088915;28;20414;-78
2022/04/22 14:38:03;;;;;;;10.15;5.90;;;;;;;;;;5089196;28;20047;-78
2022/04/22 14:40:30;;;;;;;15.13;5.90;;;;;;;;;;5086765;28;20047;-78
2022/04/22 14:42:56;;;;;;;9.52;5.80;;;;;;;;;;5088683;28;20027;-78
2022/04/22 14:45:22;;;;;;;8.52;5.65;;;;;;;;;;5088255;28;20539;-78
2022/04/22 14:47:49;;;;;;;10.35;5.75;;;;;;;;;;5088493;28;20043;-77
2022/04/22 14:50:15;;;;;;;9.95;5.50;;;;;;;;;;5088360;28;20047;-78
2022/04/22 14:52:42;;;;;;;10.73;5.40;;;;;;;;;;5088069;28;20077;-78
2022/04/22 14:55:09;;;;;;;9.38;6.10;;;;;;;;;;5085821;28;20134;-77
2022/04/22 14:57:37;;;;;;;9.23;5.95;;;;;;;;;;5088157;28;20136;-78
2022/04/22 15:00:04;;;;;;;11.93;6.20;;;;;;;;;;5071729;28;20054;-78
2022/04/22 15:02:30;;;;;;;10.02;6.45;;;;;;;;;;5088479;28;20061;-79
2022/04/22 15:04:57;;;;;;;8.85;5.85;;;;;;;;;;5088620;28;20390;-78
2022/04/22 15:07:25;;;;;;;9.50;5.78;;;;;;;;;;5088316;28;20232;-79
2022/04/22 15:09:52;;;;;;;10.90;5.47;;;;;;;;;;5086897;28;20092;-77
2022/04/22 15:12:18;;;;;;;10.68;5.43;;;;;;;;;;5085581;28;20116;-78
2022/04/22 15:14:44;;;;;;;9.13;5.93;;;;;;;;;;5088035;28;20046;-78
2022/04/22 15:17:11;;;;;;;11.80;6.05;;;;;;;;;;5090064;28;20470;-78
2022/04/22 15:25:07;;;;;;;10.38;6.20;;;;;;;;;;5127005;27;20044;-78
2022/04/22 15:27:34;;;;;;;8.63;5.88;;;;;;;;;;5093196;28;20525;-78
2022/04/22 15:30:00;;;;;;;8.82;5.60;;;;;;;;;;5093642;28;20175;-79
2022/04/22 15:32:26;;;;;;;8.55;5.35;;;;;;;;;;5092820;28;20039;-79
2022/04/22 15:34:53;;;;;;;8.50;5.00;;;;;;;;;;5093042;28;20051;-78
2022/04/22 15:37:19;;;;;;;9.82;5.80;;;;;;;;;;5076570;28;20331;-78
2022/04/22 15:39:45;;;;;;;8.93;5.78;;;;;;;;;;5092914;28;20080;-77
2022/04/22 15:42:12;;;;;;;8.13;5.28;;;;;;;;;;5093313;28;20063;-77
2022/04/22 15:44:44;;;;;;;7.57;5.18;;;;;;;;;;5072683;28;20118;-78
2022/04/22 15:47:10;;;;;;;9.15;5.20;;;;;;;;;;5090545;28;20442;-78
2022/04/22 15:49:36;;;;;;;8.90;5.18;;;;;;;;;;5073839;28;20032;-78
2022/04/22 15:52:03;;;;;;;9.55;4.80;;;;;;;;;;5092928;28;20031;-78
2022/04/22 15:54:30;;;;;;;8.02;4.88;;;;;;;;;;5076337;28;20387;-78
2022/04/22 15:56:57;;;;;;;6.88;4.70;;;;;;;;;;5092517;28;20031;-78
2022/04/22 15:59:23;;;;;;;7.72;4.60;;;;;;;;;;5092757;28;20028;-79
2022/04/22 16:01:51;;;;;;;10.02;5.30;;;;;;;;;;5092548;28;20039;-78
2022/04/22 16:04:18;;;;;;;8.30;4.70;;;;;;;;;;5088898;28;20108;-79